createdAt,value
2023-02-15T00:02:02.041Z,93.40
2023-02-15T00:04:47.020Z,93.40
2023-02-15T00:07:16.741Z,93.40
2023-02-15T00:09:43.889Z,93.50
2023-02-15T00:12:11.261Z,93.60
2023-02-15T00:14:38.154Z,93.60
2023-02-15T00:17:05.174Z,93.70
2023-02-15T00:19:32.074Z,93.80
2023-02-15T00:21:58.933Z,93.70
2023-02-15T00:24:26.014Z,93.80
2023-02-15T00:26:52.885Z,94.00
2023-02-15T00:29:20.790Z,93.90
2023-02-15T00:31:47.984Z,94.00
2023-02-15T00:34:24.824Z,94.00
2023-02-15T00:36:51.819Z,94.00
2023-02-15T00:39:19.376Z,94.00
2023-02-15T00:41:47.523Z,94.00
2023-02-15T00:44:15.066Z,94.10
2023-02-15T00:46:42.104Z,94.10
2023-02-15T00:49:10.654Z,94.10
2023-02-15T00:51:38.657Z,94.10
2023-02-15T00:54:05.799Z,94.20
2023-02-15T00:56:32.673Z,94.20
2023-02-15T00:58:59.638Z,94.20
2023-02-15T01:01:26.867Z,94.20
2023-02-15T01:03:54.020Z,94.30
2023-02-15T01:06:21.197Z,94.30
2023-02-15T01:08:48.565Z,94.30
2023-02-15T01:11:22.981Z,94.30
2023-02-15T01:13:54.400Z,94.40
2023-02-15T01:16:22.184Z,94.30
2023-02-15T01:18:49.512Z,94.30
2023-02-15T01:21:22.293Z,94.30
2023-02-15T01:23:49.459Z,94.40
2023-02-15T01:26:17.219Z,94.40
2023-02-15T01:28:45.855Z,94.50
2023-02-15T01:31:17.958Z,94.40
2023-02-15T01:33:47.474Z,94.40
2023-02-15T01:36:15.291Z,94.50
2023-02-15T01:38:42.633Z,94.50
2023-02-15T01:41:23.838Z,94.60
2023-02-15T01:44:01.016Z,94.60
2023-02-15T01:46:40.050Z,94.60
2023-02-15T01:49:17.994Z,94.60
2023-02-15T01:51:47.442Z,94.60
2023-02-15T01:54:27.097Z,94.60
2023-02-15T01:56:56.227Z,94.60
2023-02-15T01:59:25.578Z,94.50
2023-02-15T02:01:59.225Z,94.60
2023-02-15T02:04:36.777Z,94.60
2023-02-15T02:07:05.436Z,94.60
2023-02-15T02:09:33.279Z,94.60
2023-02-15T02:12:00.865Z,94.60
2023-02-15T02:14:27.922Z,94.70
2023-02-15T02:17:29.174Z,94.70
2023-02-15T02:20:31.818Z,94.80
2023-02-15T02:23:29.079Z,94.70
2023-02-15T02:26:17.529Z,94.90
2023-02-15T02:29:28.590Z,95.00
2023-02-15T02:32:29.720Z,94.90
2023-02-15T02:35:20.242Z,95.00
2023-02-15T02:37:59.490Z,94.90
2023-02-15T02:40:55.321Z,95.00
2023-02-15T02:43:36.665Z,95.00
2023-02-15T02:46:08.158Z,94.90
2023-02-15T02:48:35.860Z,94.90
2023-02-15T02:51:02.803Z,94.90
2023-02-15T02:53:32.383Z,94.70
2023-02-15T02:56:22.522Z,94.80
2023-02-15T02:59:11.010Z,95.30
2023-02-15T03:02:16.069Z,94.90
2023-02-15T03:04:49.169Z,94.90
2023-02-15T03:07:23.674Z,94.90
2023-02-15T03:09:53.667Z,95.10
2023-02-15T03:12:30.920Z,95.00
2023-02-15T03:15:16.438Z,95.40
2023-02-15T03:17:47.093Z,95.00
2023-02-15T03:20:30.623Z,95.00
2023-02-15T03:23:07.668Z,95.20
2023-02-15T03:25:41.325Z,95.10
2023-02-15T03:28:13.553Z,95.20
2023-02-15T03:30:43.516Z,95.20
2023-02-15T03:33:12.155Z,95.20
2023-02-15T03:35:54.268Z,95.20
2023-02-15T03:38:35.797Z,95.40
2023-02-15T03:41:12.970Z,95.40
2023-02-15T03:43:46.343Z,95.30
2023-02-15T03:46:24.574Z,95.30
2023-02-15T03:49:08.506Z,95.20
2023-02-15T03:51:39.575Z,95.10
2023-02-15T03:54:37.962Z,95.20
2023-02-15T03:57:31.614Z,95.20
2023-02-15T04:00:25.044Z,95.20
2023-02-15T04:03:16.395Z,95.10
2023-02-15T04:05:45.117Z,95.20
2023-02-15T04:08:13.516Z,95.10
2023-02-15T04:10:58.967Z,95.10
2023-02-15T04:13:33.766Z,95.10
2023-02-15T04:16:07.790Z,95.20
2023-02-15T04:19:02.970Z,95.20
2023-02-15T04:21:49.842Z,95.30
2023-02-15T04:24:35.961Z,95.20
2023-02-15T04:27:04.388Z,95.20
2023-02-15T04:29:31.867Z,95.20
2023-02-15T04:32:01.869Z,95.10
2023-02-15T04:34:28.850Z,95.20
2023-02-15T04:36:55.743Z,95.10
2023-02-15T04:39:22.627Z,95.10
2023-02-15T04:41:49.493Z,95.10
2023-02-15T04:44:16.649Z,95.20
2023-02-15T04:46:43.551Z,95.20
2023-02-15T04:49:10.711Z,95.40
2023-02-15T04:51:37.722Z,95.60
2023-02-15T04:54:04.737Z,95.80
2023-02-15T04:56:32.196Z,96.00
2023-02-15T04:58:59.092Z,96.20
2023-02-15T05:01:26.050Z,96.90
2023-02-15T05:03:53.058Z,97.40
2023-02-15T05:06:19.985Z,97.80
2023-02-15T05:08:46.917Z,97.60
2023-02-15T05:11:13.814Z,97.60
2023-02-15T05:13:41.439Z,97.40
2023-02-15T05:16:08.608Z,97.30
2023-02-15T05:18:35.506Z,97.30
2023-02-15T05:21:02.417Z,97.30
2023-02-15T05:23:29.288Z,97.30
2023-02-15T05:26:14.512Z,97.40
2023-02-15T05:28:41.380Z,97.50
2023-02-15T05:31:35.232Z,97.50
2023-02-15T05:34:02.345Z,97.60
2023-02-15T05:36:29.843Z,97.30
2023-02-15T05:38:57.126Z,97.30
2023-02-15T05:41:23.993Z,97.20
2023-02-15T05:43:50.876Z,97.30
2023-02-15T05:46:17.800Z,97.30
2023-02-15T05:48:44.730Z,97.50
2023-02-15T05:51:14.948Z,97.60
2023-02-15T05:53:42.035Z,98.30
2023-02-15T05:56:11.506Z,98.30
2023-02-15T05:58:41.443Z,98.40
2023-02-15T06:01:18.134Z,98.30
2023-02-15T06:03:46.565Z,98.30
2023-02-15T06:06:13.693Z,98.20
2023-02-15T06:08:40.645Z,98.30
2023-02-15T06:11:07.863Z,98.20
2023-02-15T06:13:38.407Z,98.10
2023-02-15T06:16:07.230Z,98.20
2023-02-15T06:18:34.568Z,98.20
2023-02-15T06:21:01.438Z,98.20
2023-02-15T06:23:28.311Z,98.20
2023-02-15T06:25:55.209Z,98.10
2023-02-15T06:28:22.094Z,98.20
2023-02-15T06:30:48.983Z,98.10
2023-02-15T06:33:15.904Z,98.10
2023-02-15T06:35:42.803Z,98.20
2023-02-15T06:38:09.755Z,98.10
2023-02-15T06:40:36.639Z,98.10
2023-02-15T06:43:03.526Z,98.20
2023-02-15T06:45:30.413Z,98.20
2023-02-15T06:47:57.303Z,98.20
2023-02-15T06:50:24.207Z,98.10
2023-02-15T06:52:56.580Z,98.20
2023-02-15T06:55:23.423Z,98.20
2023-02-15T06:57:51.125Z,98.40
2023-02-15T07:00:19.250Z,98.10
2023-02-15T07:02:46.197Z,98.10
2023-02-15T07:05:13.169Z,98.10
2023-02-15T07:07:40.163Z,98.10
2023-02-15T07:10:07.621Z,98.10
2023-02-15T07:12:43.501Z,98.10
2023-02-15T07:15:16.156Z,98.50
2023-02-15T07:17:44.143Z,98.20
2023-02-15T07:20:21.108Z,98.30
2023-02-15T07:22:48.623Z,98.30
2023-02-15T07:25:15.813Z,98.30
2023-02-15T07:27:42.895Z,98.40
2023-02-15T07:30:13.751Z,98.40
2023-02-15T07:33:01.142Z,98.40
2023-02-15T07:35:29.193Z,98.30
2023-02-15T07:37:56.125Z,98.30
2023-02-15T07:40:24.434Z,98.30
2023-02-15T07:42:55.806Z,98.20
2023-02-15T07:45:23.344Z,98.20
2023-02-15T07:47:50.228Z,98.10
2023-02-15T07:50:17.190Z,98.10
2023-02-15T07:52:44.058Z,98.20
2023-02-15T07:55:13.664Z,98.20
2023-02-15T07:57:48.302Z,98.10
2023-02-15T08:00:18.129Z,98.20
2023-02-15T08:03:13.272Z,98.50
2023-02-15T08:05:42.298Z,98.00
2023-02-15T08:08:30.245Z,98.00
2023-02-15T08:11:31.899Z,98.00
2023-02-15T08:14:04.694Z,97.80
2023-02-15T08:16:46.057Z,97.70
2023-02-15T08:19:22.723Z,97.70
2023-02-15T08:21:53.164Z,97.80
2023-02-15T08:24:22.847Z,97.80
2023-02-15T08:26:50.936Z,97.70
2023-02-15T08:29:23.374Z,97.70
2023-02-15T08:31:55.635Z,97.70
2023-02-15T08:34:22.610Z,97.70
2023-02-15T08:36:49.522Z,97.60
2023-02-15T08:39:16.707Z,97.40
2023-02-15T08:41:46.809Z,97.40
2023-02-15T08:44:16.138Z,97.30
2023-02-15T08:46:45.695Z,97.10
2023-02-15T08:49:18.918Z,97.10
2023-02-15T08:51:46.494Z,97.20
2023-02-15T08:54:16.909Z,97.10
2023-02-15T08:56:45.338Z,97.10
2023-02-15T08:59:21.492Z,96.90
2023-02-15T09:01:51.054Z,97.10
2023-02-15T09:04:18.584Z,96.90
2023-02-15T09:06:49.171Z,96.90
2023-02-15T09:09:17.942Z,96.90
2023-02-15T09:11:47.607Z,96.90
2023-02-15T09:14:25.428Z,96.80
2023-02-15T09:16:54.177Z,96.50
2023-02-15T09:19:23.398Z,96.10
2023-02-15T09:21:50.287Z,95.90
2023-02-15T09:24:18.262Z,95.90
2023-02-15T09:26:48.594Z,96.00
2023-02-15T09:29:16.709Z,95.90
2023-02-15T09:31:47.178Z,95.80
2023-02-15T09:34:19.127Z,95.90
2023-02-15T09:36:46.554Z,96.00
2023-02-15T09:39:16.294Z,96.00
2023-02-15T09:41:52.902Z,96.00
2023-02-15T09:44:53.342Z,95.90
2023-02-15T09:47:50.294Z,95.80
2023-02-15T09:51:13.118Z,95.70
2023-02-15T09:54:22.414Z,95.50
2023-02-15T09:56:58.210Z,95.50
2023-02-15T09:59:42.386Z,95.70
2023-02-15T10:02:47.311Z,95.60
2023-02-15T10:05:40.482Z,95.60
2023-02-15T10:08:18.991Z,95.40
2023-02-15T10:11:33.267Z,95.50
2023-02-15T10:14:18.804Z,95.50
2023-02-15T10:17:26.868Z,95.40
2023-02-15T10:20:15.717Z,95.20
2023-02-15T10:23:13.318Z,95.00
2023-02-15T10:26:32.522Z,95.10
2023-02-15T10:29:17.120Z,95.10
2023-02-15T10:32:13.004Z,94.80
2023-02-15T10:34:47.573Z,95.00
2023-02-15T10:37:31.253Z,95.00
2023-02-15T10:40:23.157Z,95.00
2023-02-15T10:43:05.286Z,94.90
2023-02-15T10:46:16.782Z,94.90
2023-02-15T10:49:08.255Z,94.20
2023-02-15T10:52:09.569Z,94.20
2023-02-15T10:55:04.664Z,94.00
2023-02-15T10:57:54.014Z,94.00
2023-02-15T11:00:43.108Z,93.80
2023-02-15T11:03:35.652Z,93.80
2023-02-15T11:06:14.890Z,93.60
2023-02-15T11:08:46.460Z,93.50
2023-02-15T11:11:43.352Z,93.50
2023-02-15T11:14:21.671Z,93.50
2023-02-15T11:16:56.230Z,93.70
2023-02-15T11:19:55.223Z,93.40
2023-02-15T11:22:22.894Z,93.20
2023-02-15T11:24:50.407Z,93.20
2023-02-15T11:27:25.515Z,93.20
2023-02-15T11:30:14.592Z,93.00
2023-02-15T11:32:45.742Z,92.90
2023-02-15T11:35:15.098Z,93.00
2023-02-15T11:37:55.057Z,92.70
2023-02-15T11:40:35.270Z,92.60
2023-02-15T11:43:13.992Z,92.70
2023-02-15T11:45:47.324Z,92.70
2023-02-15T11:48:16.207Z,92.40
2023-02-15T11:50:44.588Z,92.70
2023-02-15T11:53:25.785Z,92.70
2023-02-15T11:55:52.974Z,92.90
2023-02-15T11:58:29.440Z,92.90
2023-02-15T12:01:40.864Z,93.00
2023-02-15T12:04:22.821Z,92.70
2023-02-15T12:07:26.504Z,92.70
2023-02-15T12:10:26.475Z,92.30
2023-02-15T12:13:17.815Z,92.30
2023-02-15T12:15:51.760Z,92.40
2023-02-15T12:18:46.609Z,92.40
2023-02-15T12:21:34.104Z,92.50
2023-02-15T12:24:22.883Z,92.20
2023-02-15T12:26:59.635Z,92.00
2023-02-15T12:29:32.152Z,92.10
2023-02-15T12:32:00.097Z,92.10
2023-02-15T12:34:33.211Z,92.30
2023-02-15T12:37:22.766Z,92.20
2023-02-15T12:39:59.208Z,92.20
2023-02-15T12:42:30.056Z,92.00
2023-02-15T12:45:31.741Z,91.80
2023-02-15T12:48:18.057Z,91.80
2023-02-15T12:50:55.415Z,92.20
2023-02-15T12:53:34.644Z,92.00
2023-02-15T12:56:05.097Z,92.00
2023-02-15T12:58:35.097Z,92.00
2023-02-15T13:01:10.444Z,92.00
2023-02-15T13:03:51.927Z,92.00
2023-02-15T13:06:19.581Z,91.90
2023-02-15T13:08:52.905Z,91.90
2023-02-15T13:11:32.718Z,92.00
2023-02-15T13:14:16.187Z,92.20
2023-02-15T13:16:46.099Z,91.80
2023-02-15T13:19:38.186Z,91.70
2023-02-15T13:22:14.082Z,91.60
2023-02-15T13:24:49.571Z,91.70
2023-02-15T13:27:23.230Z,91.80
2023-02-15T13:29:54.740Z,91.80
2023-02-15T13:32:38.020Z,91.80
2023-02-15T13:35:08.094Z,91.80
2023-02-15T13:38:07.404Z,91.70
2023-02-15T13:40:39.176Z,91.80
2023-02-15T13:43:43.753Z,91.90
2023-02-15T13:46:28.849Z,91.50
2023-02-15T13:49:19.865Z,91.30
2023-02-15T13:52:22.943Z,91.50
2023-02-15T13:55:28.244Z,91.40
2023-02-15T13:58:35.566Z,91.30
2023-02-15T14:01:35.487Z,91.40
2023-02-15T14:04:46.605Z,91.20
2023-02-15T14:07:54.652Z,91.20
2023-02-15T14:10:45.839Z,91.20
2023-02-15T14:13:48.259Z,91.30
2023-02-15T14:16:34.978Z,91.30
2023-02-15T14:19:37.696Z,91.40
2023-02-15T14:22:36.348Z,91.40
2023-02-15T14:25:29.551Z,91.50
2023-02-15T14:28:42.174Z,91.40
2023-02-15T14:31:13.126Z,91.30
2023-02-15T14:33:48.614Z,91.40
2023-02-15T14:36:20.546Z,91.50
2023-02-15T14:39:42.610Z,91.30
2023-02-15T14:42:15.698Z,91.30
2023-02-15T14:45:02.631Z,91.40
2023-02-15T14:47:38.270Z,91.40
2023-02-15T14:50:34.816Z,91.50
2023-02-15T14:53:32.033Z,91.40
2023-02-15T14:56:21.014Z,91.40
2023-02-15T14:58:50.821Z,91.40
2023-02-15T15:01:34.931Z,91.40
2023-02-15T15:04:09.697Z,91.40
2023-02-15T15:06:43.492Z,91.40
2023-02-15T15:09:21.663Z,91.40
2023-02-15T15:11:51.880Z,91.40
2023-02-15T15:14:33.997Z,91.40
2023-02-15T15:17:04.749Z,91.50
2023-02-15T15:19:54.834Z,91.50
2023-02-15T15:22:28.092Z,91.90
2023-02-15T15:25:01.135Z,91.60
2023-02-15T15:27:54.377Z,91.60
2023-02-15T15:30:24.368Z,91.90
2023-02-15T15:32:57.784Z,91.80
2023-02-15T15:35:47.684Z,91.90
2023-02-15T15:39:03.683Z,92.00
2023-02-15T15:41:46.851Z,92.30
2023-02-15T15:45:04.674Z,92.30
2023-02-15T15:47:43.743Z,92.40
2023-02-15T15:50:21.370Z,92.50
2023-02-15T15:52:58.212Z,92.60
2023-02-15T15:55:28.927Z,92.60
2023-02-15T15:58:06.096Z,92.60
2023-02-15T16:00:43.413Z,92.70
2023-02-15T16:03:25.687Z,92.70
2023-02-15T16:05:56.487Z,92.90
2023-02-15T16:08:40.829Z,92.80
2023-02-15T16:11:30.308Z,93.00
2023-02-15T16:13:57.398Z,93.20
2023-02-15T16:16:29.689Z,93.00
2023-02-15T16:19:00.695Z,93.20
2023-02-15T16:21:35.737Z,93.10
2023-02-15T16:24:54.673Z,93.20
2023-02-15T16:27:45.202Z,93.40
2023-02-15T16:30:23.258Z,93.50
2023-02-15T16:32:53.901Z,93.60
2023-02-15T16:35:22.162Z,93.80
2023-02-15T16:37:49.116Z,94.00
2023-02-15T16:40:24.694Z,94.30
2023-02-15T16:42:54.868Z,94.60
2023-02-15T16:45:25.426Z,94.60
2023-02-15T16:47:57.398Z,94.60
2023-02-15T16:50:31.782Z,94.80
2023-02-15T16:52:58.937Z,94.70
2023-02-15T16:55:29.564Z,94.70
2023-02-15T16:58:02.558Z,94.70
2023-02-15T17:00:35.076Z,94.70
2023-02-15T17:03:23.169Z,94.60
2023-02-15T17:05:57.678Z,94.60
2023-02-15T17:08:34.866Z,94.50
2023-02-15T17:11:21.327Z,94.50
2023-02-15T17:14:09.703Z,94.50
2023-02-15T17:16:50.192Z,94.60
2023-02-15T17:19:27.408Z,94.50
2023-02-15T17:22:04.850Z,94.30
2023-02-15T17:24:31.565Z,94.30
2023-02-15T17:27:02.721Z,94.30
2023-02-15T17:29:41.300Z,94.40
2023-02-15T17:32:24.952Z,94.40
2023-02-15T17:35:09.545Z,94.50
2023-02-15T17:37:39.390Z,94.40
2023-02-15T17:40:35.415Z,94.40
2023-02-15T17:43:02.410Z,94.40
2023-02-15T17:45:41.485Z,94.50
2023-02-15T17:48:21.255Z,94.60
2023-02-15T17:50:48.602Z,94.60
2023-02-15T17:53:18.843Z,94.80
2023-02-15T17:55:46.461Z,94.80
2023-02-15T17:58:16.923Z,94.80
2023-02-15T18:01:09.986Z,94.90
2023-02-15T18:04:08.619Z,95.00
2023-02-15T18:06:59.061Z,95.00
2023-02-15T18:09:44.954Z,94.90
2023-02-15T18:12:27.882Z,94.90
2023-02-15T18:14:56.832Z,95.10
2023-02-15T18:17:35.257Z,94.90
2023-02-15T18:20:18.370Z,95.00
2023-02-15T18:22:46.502Z,95.00
2023-02-15T18:25:15.691Z,94.90
2023-02-15T18:27:43.131Z,95.00
2023-02-15T18:30:20.314Z,95.00
2023-02-15T18:32:51.390Z,95.00
2023-02-15T18:35:22.132Z,95.00
2023-02-15T18:37:50.469Z,95.00
2023-02-15T18:40:20.468Z,94.90
2023-02-15T18:42:48.934Z,95.00
2023-02-15T18:45:28.290Z,95.00
2023-02-15T18:47:55.261Z,95.00
2023-02-15T18:50:23.843Z,95.00
2023-02-15T18:52:51.553Z,95.00
2023-02-15T18:55:25.024Z,95.00
2023-02-15T18:57:54.372Z,95.10
2023-02-15T19:00:30.395Z,95.10
2023-02-15T19:02:57.916Z,95.10
2023-02-15T19:05:29.507Z,95.00
2023-02-15T19:07:58.943Z,95.00
2023-02-15T19:10:28.761Z,95.00
2023-02-15T19:12:56.285Z,95.00
2023-02-15T19:15:27.100Z,95.00
2023-02-15T19:17:54.777Z,95.00
2023-02-15T19:20:30.046Z,94.90
2023-02-15T19:22:58.410Z,95.00
2023-02-15T19:25:29.206Z,95.00
2023-02-15T19:27:56.535Z,95.00
2023-02-15T19:30:31.988Z,95.00
2023-02-15T19:32:59.854Z,95.10
2023-02-15T19:35:32.139Z,95.10
2023-02-15T19:38:04.049Z,95.00
2023-02-15T19:40:34.652Z,95.00
2023-02-15T19:43:02.751Z,95.10
2023-02-15T19:45:31.639Z,95.10
2023-02-15T19:48:01.841Z,95.20
2023-02-15T19:50:33.380Z,95.30
2023-02-15T19:53:01.990Z,95.30
2023-02-15T19:55:34.926Z,95.30
2023-02-15T19:58:03.088Z,95.30
2023-02-15T20:00:34.193Z,95.20
2023-02-15T20:03:01.373Z,95.30
2023-02-15T20:05:30.603Z,95.30
2023-02-15T20:07:58.366Z,95.30
2023-02-15T20:10:29.544Z,95.20
2023-02-15T20:12:57.016Z,95.30
2023-02-15T20:15:28.158Z,95.20
2023-02-15T20:17:57.210Z,95.20
2023-02-15T20:20:31.013Z,95.30
2023-02-15T20:22:57.949Z,95.30
2023-02-15T20:25:29.206Z,95.40
2023-02-15T20:27:59.190Z,95.40
2023-02-15T20:30:30.633Z,95.30
2023-02-15T20:32:57.774Z,95.50
2023-02-15T20:35:28.549Z,95.40
2023-02-15T20:37:59.583Z,95.50
2023-02-15T20:40:30.935Z,95.50
2023-02-15T20:42:57.891Z,95.50
2023-02-15T20:45:28.704Z,95.50
2023-02-15T20:47:56.179Z,95.50
2023-02-15T20:50:27.256Z,95.40
2023-02-15T20:52:56.432Z,95.70
2023-02-15T20:55:27.317Z,95.40
2023-02-15T20:57:54.255Z,95.50
2023-02-15T21:00:24.923Z,95.50
2023-02-15T21:02:56.548Z,95.50
2023-02-15T21:05:26.815Z,95.40
2023-02-15T21:07:54.566Z,95.40
2023-02-15T21:10:29.360Z,95.30
2023-02-15T21:12:59.874Z,95.30
2023-02-15T21:15:39.824Z,95.30
2023-02-15T21:18:15.367Z,95.40
2023-02-15T21:20:48.276Z,95.40
2023-02-15T21:23:18.792Z,95.30
2023-02-15T21:25:46.299Z,95.20
2023-02-15T21:28:27.514Z,95.20
2023-02-15T21:30:59.617Z,95.20
2023-02-15T21:33:27.264Z,95.30
2023-02-15T21:35:56.874Z,95.30
2023-02-15T21:38:29.444Z,95.40
2023-02-15T21:41:16.272Z,95.50
2023-02-15T21:44:18.462Z,95.50
2023-02-15T21:47:04.118Z,95.60
2023-02-15T21:49:31.011Z,95.70
2023-02-15T21:52:13.083Z,95.60
2023-02-15T21:54:45.048Z,95.60
2023-02-15T21:57:16.936Z,95.90
2023-02-15T21:59:44.554Z,95.60
2023-02-15T22:02:28.553Z,95.50
2023-02-15T22:04:56.533Z,95.50
2023-02-15T22:07:23.437Z,95.50
2023-02-15T22:09:50.299Z,95.40
2023-02-15T22:12:19.195Z,95.50
2023-02-15T22:14:53.312Z,95.50
2023-02-15T22:17:24.957Z,95.50
2023-02-15T22:19:52.659Z,95.50
2023-02-15T22:22:19.591Z,95.40
2023-02-15T22:24:46.831Z,95.40
2023-02-15T22:27:22.159Z,95.40
2023-02-15T22:29:50.171Z,95.40
2023-02-15T22:32:23.532Z,95.40
2023-02-15T22:34:51.411Z,95.40
2023-02-15T22:37:18.362Z,95.40
2023-02-15T22:39:45.251Z,95.40
2023-02-15T22:42:26.186Z,95.40
2023-02-15T22:44:55.617Z,95.90
2023-02-15T22:47:26.041Z,95.60
2023-02-15T22:49:54.452Z,95.50
2023-02-15T22:52:21.653Z,95.50
2023-02-15T22:54:48.526Z,95.60
2023-02-15T22:57:24.849Z,95.60
2023-02-15T22:59:51.735Z,95.60
2023-02-15T23:02:18.646Z,95.60
2023-02-15T23:04:45.557Z,95.70
2023-02-15T23:07:18.993Z,95.80
2023-02-15T23:09:46.582Z,95.80
2023-02-15T23:12:27.335Z,95.80
2023-02-15T23:14:54.790Z,95.90
2023-02-15T23:17:22.088Z,95.90
2023-02-15T23:19:49.022Z,95.70
2023-02-15T23:22:18.166Z,95.70
2023-02-15T23:24:51.931Z,95.70
2023-02-15T23:27:38.131Z,95.70
2023-02-15T23:30:10.561Z,95.70
2023-02-15T23:32:37.480Z,95.80
2023-02-15T23:35:15.482Z,95.70
2023-02-15T23:37:42.368Z,95.70
2023-02-15T23:40:37.125Z,95.60
2023-02-15T23:43:04.284Z,95.60
2023-02-15T23:45:38.233Z,95.60
2023-02-15T23:48:29.914Z,95.70
2023-02-15T23:50:57.746Z,96.10
2023-02-15T23:53:24.654Z,95.70
2023-02-15T23:55:51.580Z,95.60
2023-02-15T23:58:23.425Z,95.60
